Apple Springs, TX (75926)

10:27 AM CDT on July 27, 2016 (GMT -0500)
Penn Bonner Rd | | Change Station

Elev 305 ft 31.32 °N, 94.84 °W | Updated 4 seconds ago

Mostly Cloudy
Mostly Cloudy
84.4 °F
Feels Like 87 °F
N
1.1
Wind Variable Wind from WNW
Gusts 2.5 mph

Today
High -- | Low -- °F
--% Chance of Precip.
Yesterday
High -- | Low -- °F
Precip. -- in
Pressure 29.99 in
Visibility 10.0 miles
Clouds Mostly Cloudy 1800 ft
Mostly Cloudy 2300 ft
Heat Index 87 °F
Dew Point 66 °F
Humidity 54%
Rainfall 0.00 in
Snow Depth Not available.
6:33 AM 8:18 PM
Last Quarter, 42% visible
SPECI KLFK 271516Z AUTO 26005KT 10SM BKN018 BKN023 28/24 A2999 RMK AO2 T02830244
Pressure 29.99 in
Visibility 10.0 miles
Clouds Mostly Cloudy 1800 ft
Mostly Cloudy 2300 ft
Heat Index 87 °F
Dew Point 66 °F
Humidity 54%
Rainfall 0.00 in
Snow Depth Not available.
6:33 AM 8:18 PM
Last Quarter, 42% visible
SPECI KLFK 271516Z AUTO 26005KT 10SM BKN018 BKN023 28/24 A2999 RMK AO2 T02830244

10-Day Weather Forecast

Almanac

Astronomy

Jul. 27, 2016 Rise Set
Actual Time
Civil Twilight
Nautical Twilight
Astronomical Twilight
Moon
Length of Visible Light
Length of Day
Tomorrow will be .
, % of the Moon is Illuminated

Today's Extremes

State Highs State Lows

Community

WunderPhotos

Upload Photos

1,927,859 photos uploaded!

WunderBlog® & News

Nearby

Air Quality

  Air Quality AQ Index Pollutant
Not available.

Snow Depth

Station Depth Elevation

Earthquake Activity

City Distance Mag. Time & Date
Minimum magnitude displayed is 2.5.

Coastal Water Temperatures

Place Temperature

Stations

Nearby Weather Stations

Station Location Temp. Windchill Dew Point Humidity Wind Precip. Elev Updated Type
                   

Watches & Warnings

There are currently no watches in effect.